sensor_id;sensor_type;location;lat;lon;timestamp;P1;durP1;ratioP1;P2;durP2;ratioP2
7181;SDS011;3632;42.724;23.298;2023-07-02T00:01:49;7.30;;;5.70;;
7181;SDS011;3632;42.724;23.298;2023-07-02T00:04:16;6.60;;;5.63;;
7181;SDS011;3632;42.724;23.298;2023-07-02T00:06:44;9.87;;;5.80;;
7181;SDS011;3632;42.724;23.298;2023-07-02T00:09:12;9.07;;;6.00;;
7181;SDS011;3632;42.724;23.298;2023-07-02T00:11:41;7.70;;;5.80;;
7181;SDS011;3632;42.724;23.298;2023-07-02T00:14:09;8.00;;;5.80;;
7181;SDS011;3632;42.724;23.298;2023-07-02T00:16:37;9.20;;;6.23;;
7181;SDS011;3632;42.724;23.298;2023-07-02T00:19:05;9.10;;;6.37;;
7181;SDS011;3632;42.724;23.298;2023-07-02T00:21:32;9.03;;;6.00;;
7181;SDS011;3632;42.724;23.298;2023-07-02T00:23:59;7.10;;;5.40;;
7181;SDS011;3632;42.724;23.298;2023-07-02T00:26:27;7.83;;;6.00;;
7181;SDS011;3632;42.724;23.298;2023-07-02T00:28:56;6.73;;;5.80;;
7181;SDS011;3632;42.724;23.298;2023-07-02T00:31:23;7.60;;;6.10;;
7181;SDS011;3632;42.724;23.298;2023-07-02T00:33:50;8.03;;;6.10;;
7181;SDS011;3632;42.724;23.298;2023-07-02T00:36:17;7.40;;;5.97;;
7181;SDS011;3632;42.724;23.298;2023-07-02T00:38:44;7.33;;;5.93;;
7181;SDS011;3632;42.724;23.298;2023-07-02T00:41:12;8.03;;;5.83;;
7181;SDS011;3632;42.724;23.298;2023-07-02T00:43:39;9.70;;;6.37;;
7181;SDS011;3632;42.724;23.298;2023-07-02T00:46:09;8.27;;;5.63;;
7181;SDS011;3632;42.724;23.298;2023-07-02T00:48:39;8.77;;;5.97;;
7181;SDS011;3632;42.724;23.298;2023-07-02T00:51:07;7.13;;;5.70;;
7181;SDS011;3632;42.724;23.298;2023-07-02T00:53:35;7.40;;;5.53;;
7181;SDS011;3632;42.724;23.298;2023-07-02T00:56:02;9.03;;;5.67;;
7181;SDS011;3632;42.724;23.298;2023-07-02T00:58:29;7.17;;;5.73;;
7181;SDS011;3632;42.724;23.298;2023-07-02T01:00:56;9.63;;;6.03;;
7181;SDS011;3632;42.724;23.298;2023-07-02T01:03:24;8.03;;;5.77;;
7181;SDS011;3632;42.724;23.298;2023-07-02T01:05:51;5.97;;;5.27;;
7181;SDS011;3632;42.724;23.298;2023-07-02T01:08:17;8.07;;;5.47;;
7181;SDS011;3632;42.724;23.298;2023-07-02T01:10:44;7.00;;;5.47;;
7181;SDS011;3632;42.724;23.298;2023-07-02T01:13:12;6.87;;;5.33;;
7181;SDS011;3632;42.724;23.298;2023-07-02T01:15:41;6.50;;;5.40;;
7181;SDS011;3632;42.724;23.298;2023-07-02T01:18:10;10.17;;;6.40;;
7181;SDS011;3632;42.724;23.298;2023-07-02T01:20:41;6.80;;;5.43;;
7181;SDS011;3632;42.724;23.298;2023-07-02T01:23:08;8.87;;;5.50;;
7181;SDS011;3632;42.724;23.298;2023-07-02T01:25:36;9.03;;;5.43;;
7181;SDS011;3632;42.724;23.298;2023-07-02T01:28:03;8.37;;;5.37;;
7181;SDS011;3632;42.724;23.298;2023-07-02T01:30:30;7.83;;;5.83;;
7181;SDS011;3632;42.724;23.298;2023-07-02T01:32:56;8.37;;;5.37;;
7181;SDS011;3632;42.724;23.298;2023-07-02T01:35:23;7.83;;;6.27;;
7181;SDS011;3632;42.724;23.298;2023-07-02T01:37:51;8.87;;;6.13;;
7181;SDS011;3632;42.724;23.298;2023-07-02T01:40:19;11.80;;;7.33;;
7181;SDS011;3632;42.724;23.298;2023-07-02T01:42:46;7.37;;;5.27;;
7181;SDS011;3632;42.724;23.298;2023-07-02T01:45:12;10.57;;;5.90;;
7181;SDS011;3632;42.724;23.298;2023-07-02T01:47:39;8.00;;;6.60;;
7181;SDS011;3632;42.724;23.298;2023-07-02T01:50:06;8.87;;;6.47;;
7181;SDS011;3632;42.724;23.298;2023-07-02T01:52:33;8.87;;;6.33;;
7181;SDS011;3632;42.724;23.298;2023-07-02T01:55:02;8.73;;;5.90;;
7181;SDS011;3632;42.724;23.298;2023-07-02T01:57:29;9.43;;;6.47;;
7181;SDS011;3632;42.724;23.298;2023-07-02T01:59:56;7.30;;;5.87;;
7181;SDS011;3632;42.724;23.298;2023-07-02T02:02:23;11.23;;;6.47;;
7181;SDS011;3632;42.724;23.298;2023-07-02T02:04:50;9.83;;;6.00;;
7181;SDS011;3632;42.724;23.298;2023-07-02T02:07:17;8.90;;;5.63;;
7181;SDS011;3632;42.724;23.298;2023-07-02T02:09:44;10.13;;;6.27;;
7181;SDS011;3632;42.724;23.298;2023-07-02T02:12:12;9.67;;;6.50;;
7181;SDS011;3632;42.724;23.298;2023-07-02T02:14:39;9.87;;;6.47;;
7181;SDS011;3632;42.724;23.298;2023-07-02T02:17:06;12.70;;;9.03;;
7181;SDS011;3632;42.724;23.298;2023-07-02T02:19:32;14.20;;;8.80;;
7181;SDS011;3632;42.724;23.298;2023-07-02T02:21:59;13.20;;;8.40;;
7181;SDS011;3632;42.724;23.298;2023-07-02T02:24:26;7.73;;;6.93;;
7181;SDS011;3632;42.724;23.298;2023-07-02T02:26:53;8.93;;;6.73;;
7181;SDS011;3632;42.724;23.298;2023-07-02T02:29:21;10.43;;;6.50;;
7181;SDS011;3632;42.724;23.298;2023-07-02T02:31:47;9.87;;;6.27;;
7181;SDS011;3632;42.724;23.298;2023-07-02T02:34:14;11.87;;;6.73;;
7181;SDS011;3632;42.724;23.298;2023-07-02T02:36:41;11.23;;;7.30;;
7181;SDS011;3632;42.724;23.298;2023-07-02T02:39:07;12.50;;;6.70;;
7181;SDS011;3632;42.724;23.298;2023-07-02T02:41:34;10.17;;;6.83;;
7181;SDS011;3632;42.724;23.298;2023-07-02T02:44:01;10.50;;;6.43;;
7181;SDS011;3632;42.724;23.298;2023-07-02T02:46:30;9.60;;;7.00;;
7181;SDS011;3632;42.724;23.298;2023-07-02T02:48:57;11.67;;;7.03;;
7181;SDS011;3632;42.724;23.298;2023-07-02T02:51:24;10.77;;;6.90;;
7181;SDS011;3632;42.724;23.298;2023-07-02T02:53:50;10.90;;;7.57;;
7181;SDS011;3632;42.724;23.298;2023-07-02T02:56:17;13.13;;;7.77;;
7181;SDS011;3632;42.724;23.298;2023-07-02T02:58:44;13.63;;;7.17;;
7181;SDS011;3632;42.724;23.298;2023-07-02T03:01:10;12.10;;;6.80;;
7181;SDS011;3632;42.724;23.298;2023-07-02T03:03:39;11.73;;;6.73;;
7181;SDS011;3632;42.724;23.298;2023-07-02T03:06:10;9.00;;;6.90;;
7181;SDS011;3632;42.724;23.298;2023-07-02T03:08:38;11.03;;;6.53;;
7181;SDS011;3632;42.724;23.298;2023-07-02T03:11:06;11.30;;;7.17;;
7181;SDS011;3632;42.724;23.298;2023-07-02T03:13:33;11.57;;;6.80;;
7181;SDS011;3632;42.724;23.298;2023-07-02T03:16:00;14.80;;;7.10;;
7181;SDS011;3632;42.724;23.298;2023-07-02T03:18:27;10.27;;;7.00;;
7181;SDS011;3632;42.724;23.298;2023-07-02T03:20:55;9.80;;;6.80;;
7181;SDS011;3632;42.724;23.298;2023-07-02T03:23:21;8.33;;;6.57;;
7181;SDS011;3632;42.724;23.298;2023-07-02T03:25:48;12.77;;;7.40;;
7181;SDS011;3632;42.724;23.298;2023-07-02T03:28:15;10.17;;;7.17;;
7181;SDS011;3632;42.724;23.298;2023-07-02T03:30:42;10.93;;;7.03;;
7181;SDS011;3632;42.724;23.298;2023-07-02T03:33:09;9.00;;;6.67;;
7181;SDS011;3632;42.724;23.298;2023-07-02T03:35:36;10.10;;;6.67;;
7181;SDS011;3632;42.724;23.298;2023-07-02T03:38:04;10.70;;;6.67;;
7181;SDS011;3632;42.724;23.298;2023-07-02T03:40:31;11.60;;;6.87;;
7181;SDS011;3632;42.724;23.298;2023-07-02T03:42:58;15.83;;;7.60;;
7181;SDS011;3632;42.724;23.298;2023-07-02T03:45:24;13.50;;;7.30;;
7181;SDS011;3632;42.724;23.298;2023-07-02T03:47:51;15.33;;;7.50;;
7181;SDS011;3632;42.724;23.298;2023-07-02T03:50:18;11.77;;;6.93;;
7181;SDS011;3632;42.724;23.298;2023-07-02T03:52:45;14.93;;;7.10;;
7181;SDS011;3632;42.724;23.298;2023-07-02T03:55:13;9.63;;;6.90;;
7181;SDS011;3632;42.724;23.298;2023-07-02T03:57:40;9.67;;;6.47;;
7181;SDS011;3632;42.724;23.298;2023-07-02T04:00:07;8.13;;;6.47;;
7181;SDS011;3632;42.724;23.298;2023-07-02T04:02:36;8.07;;;6.33;;
7181;SDS011;3632;42.724;23.298;2023-07-02T04:05:04;10.57;;;6.60;;
7181;SDS011;3632;42.724;23.298;2023-07-02T04:07:31;12.30;;;6.70;;
7181;SDS011;3632;42.724;23.298;2023-07-02T04:09:57;10.10;;;6.40;;
7181;SDS011;3632;42.724;23.298;2023-07-02T04:12:26;9.77;;;6.63;;
7181;SDS011;3632;42.724;23.298;2023-07-02T04:14:53;8.37;;;6.97;;
7181;SDS011;3632;42.724;23.298;2023-07-02T04:17:19;9.43;;;6.63;;
7181;SDS011;3632;42.724;23.298;2023-07-02T04:19:46;10.03;;;7.40;;
7181;SDS011;3632;42.724;23.298;2023-07-02T04:22:14;12.50;;;7.47;;
7181;SDS011;3632;42.724;23.298;2023-07-02T04:24:40;10.57;;;7.63;;
7181;SDS011;3632;42.724;23.298;2023-07-02T04:27:07;12.63;;;7.03;;
7181;SDS011;3632;42.724;23.298;2023-07-02T04:29:35;12.87;;;8.70;;
7181;SDS011;3632;42.724;23.298;2023-07-02T04:32:02;12.57;;;7.80;;
7181;SDS011;3632;42.724;23.298;2023-07-02T04:34:29;17.50;;;10.43;;
7181;SDS011;3632;42.724;23.298;2023-07-02T04:36:56;11.30;;;7.67;;
7181;SDS011;3632;42.724;23.298;2023-07-02T04:39:22;10.53;;;7.83;;
7181;SDS011;3632;42.724;23.298;2023-07-02T04:41:49;10.50;;;7.17;;
7181;SDS011;3632;42.724;23.298;2023-07-02T04:44:17;11.40;;;7.30;;
7181;SDS011;3632;42.724;23.298;2023-07-02T04:46:47;10.63;;;8.27;;
7181;SDS011;3632;42.724;23.298;2023-07-02T04:49:14;11.00;;;7.90;;
7181;SDS011;3632;42.724;23.298;2023-07-02T04:51:41;10.90;;;7.57;;
7181;SDS011;3632;42.724;23.298;2023-07-02T04:54:08;11.63;;;7.63;;
7181;SDS011;3632;42.724;23.298;2023-07-02T04:56:35;11.57;;;8.17;;
7181;SDS011;3632;42.724;23.298;2023-07-02T04:59:01;12.63;;;7.73;;
7181;SDS011;3632;42.724;23.298;2023-07-02T05:01:28;14.60;;;8.00;;
7181;SDS011;3632;42.724;23.298;2023-07-02T05:03:56;12.27;;;7.87;;
7181;SDS011;3632;42.724;23.298;2023-07-02T05:06:23;10.93;;;7.33;;
7181;SDS011;3632;42.724;23.298;2023-07-02T05:08:50;10.57;;;7.57;;
7181;SDS011;3632;42.724;23.298;2023-07-02T05:11:17;10.63;;;7.10;;
7181;SDS011;3632;42.724;23.298;2023-07-02T05:13:44;12.60;;;7.17;;
7181;SDS011;3632;42.724;23.298;2023-07-02T05:16:11;12.17;;;7.93;;
7181;SDS011;3632;42.724;23.298;2023-07-02T05:18:38;12.77;;;7.77;;
7181;SDS011;3632;42.724;23.298;2023-07-02T05:21:06;10.40;;;8.20;;
7181;SDS011;3632;42.724;23.298;2023-07-02T05:23:33;11.43;;;7.87;;
7181;SDS011;3632;42.724;23.298;2023-07-02T05:26:00;9.97;;;7.70;;
7181;SDS011;3632;42.724;23.298;2023-07-02T05:28:27;10.90;;;8.17;;
7181;SDS011;3632;42.724;23.298;2023-07-02T05:30:54;13.83;;;8.47;;
7181;SDS011;3632;42.724;23.298;2023-07-02T05:33:21;14.30;;;8.07;;
7181;SDS011;3632;42.724;23.298;2023-07-02T05:35:48;10.97;;;7.53;;
7181;SDS011;3632;42.724;23.298;2023-07-02T05:38:17;10.53;;;7.33;;
7181;SDS011;3632;42.724;23.298;2023-07-02T05:40:44;11.23;;;7.57;;
7181;SDS011;3632;42.724;23.298;2023-07-02T05:43:11;10.00;;;7.30;;
7181;SDS011;3632;42.724;23.298;2023-07-02T05:45:38;10.40;;;7.30;;
7181;SDS011;3632;42.724;23.298;2023-07-02T05:48:05;12.87;;;7.73;;
7181;SDS011;3632;42.724;23.298;2023-07-02T05:50:34;14.37;;;8.10;;
7181;SDS011;3632;42.724;23.298;2023-07-02T05:53:01;11.13;;;8.43;;
7181;SDS011;3632;42.724;23.298;2023-07-02T05:55:29;14.23;;;8.17;;
7181;SDS011;3632;42.724;23.298;2023-07-02T05:57:55;13.13;;;8.00;;
7181;SDS011;3632;42.724;23.298;2023-07-02T06:00:26;15.70;;;8.20;;
7181;SDS011;3632;42.724;23.298;2023-07-02T06:02:53;16.60;;;8.53;;
7181;SDS011;3632;42.724;23.298;2023-07-02T06:05:20;12.90;;;8.30;;
7181;SDS011;3632;42.724;23.298;2023-07-02T06:07:46;12.93;;;8.43;;
7181;SDS011;3632;42.724;23.298;2023-07-02T06:10:13;13.87;;;8.77;;
7181;SDS011;3632;42.724;23.298;2023-07-02T06:12:41;11.37;;;8.37;;
7181;SDS011;3632;42.724;23.298;2023-07-02T06:15:09;11.23;;;8.30;;
7181;SDS011;3632;42.724;23.298;2023-07-02T06:17:36;12.73;;;8.00;;
7181;SDS011;3632;42.724;23.298;2023-07-02T06:20:03;11.73;;;8.57;;
7181;SDS011;3632;42.724;23.298;2023-07-02T06:22:30;12.20;;;8.30;;
7181;SDS011;3632;42.724;23.298;2023-07-02T06:24:57;15.10;;;8.03;;
7181;SDS011;3632;42.724;23.298;2023-07-02T06:27:24;11.53;;;8.90;;
7181;SDS011;3632;42.724;23.298;2023-07-02T06:29:52;11.53;;;8.13;;
7181;SDS011;3632;42.724;23.298;2023-07-02T06:32:19;13.20;;;8.37;;
7181;SDS011;3632;42.724;23.298;2023-07-02T06:34:45;12.27;;;8.60;;
7181;SDS011;3632;42.724;23.298;2023-07-02T06:37:12;10.90;;;8.13;;
7181;SDS011;3632;42.724;23.298;2023-07-02T06:39:39;14.00;;;8.30;;
7181;SDS011;3632;42.724;23.298;2023-07-02T06:42:06;13.83;;;9.47;;
7181;SDS011;3632;42.724;23.298;2023-07-02T06:44:32;15.83;;;9.23;;
7181;SDS011;3632;42.724;23.298;2023-07-02T06:47:01;12.83;;;8.83;;
7181;SDS011;3632;42.724;23.298;2023-07-02T06:49:27;14.57;;;9.50;;
7181;SDS011;3632;42.724;23.298;2023-07-02T06:51:54;14.77;;;9.40;;
7181;SDS011;3632;42.724;23.298;2023-07-02T06:54:21;13.07;;;8.67;;
7181;SDS011;3632;42.724;23.298;2023-07-02T06:56:48;14.10;;;8.87;;
7181;SDS011;3632;42.724;23.298;2023-07-02T06:59:18;12.87;;;8.53;;
7181;SDS011;3632;42.724;23.298;2023-07-02T07:01:45;16.17;;;9.23;;
7181;SDS011;3632;42.724;23.298;2023-07-02T07:04:13;15.27;;;8.90;;
7181;SDS011;3632;42.724;23.298;2023-07-02T07:06:40;13.33;;;8.80;;
7181;SDS011;3632;42.724;23.298;2023-07-02T07:09:07;16.10;;;12.60;;
7181;SDS011;3632;42.724;23.298;2023-07-02T07:11:34;13.80;;;10.80;;
7181;SDS011;3632;42.724;23.298;2023-07-02T07:14:02;12.43;;;8.30;;
7181;SDS011;3632;42.724;23.298;2023-07-02T07:16:28;13.03;;;8.77;;
7181;SDS011;3632;42.724;23.298;2023-07-02T07:18:55;11.57;;;8.27;;
7181;SDS011;3632;42.724;23.298;2023-07-02T07:21:23;12.20;;;8.10;;
7181;SDS011;3632;42.724;23.298;2023-07-02T07:23:50;11.97;;;8.00;;
7181;SDS011;3632;42.724;23.298;2023-07-02T07:26:17;11.50;;;7.73;;
7181;SDS011;3632;42.724;23.298;2023-07-02T07:28:44;13.47;;;9.80;;
7181;SDS011;3632;42.724;23.298;2023-07-02T07:31:10;11.73;;;9.53;;
7181;SDS011;3632;42.724;23.298;2023-07-02T07:33:37;14.83;;;9.73;;
7181;SDS011;3632;42.724;23.298;2023-07-02T07:36:04;11.80;;;8.63;;
7181;SDS011;3632;42.724;23.298;2023-07-02T07:38:32;11.43;;;8.67;;
7181;SDS011;3632;42.724;23.298;2023-07-02T07:40:59;10.73;;;8.23;;
7181;SDS011;3632;42.724;23.298;2023-07-02T07:43:25;13.73;;;8.67;;
7181;SDS011;3632;42.724;23.298;2023-07-02T07:45:52;10.43;;;8.30;;
7181;SDS011;3632;42.724;23.298;2023-07-02T07:48:19;12.97;;;8.80;;
7181;SDS011;3632;42.724;23.298;2023-07-02T07:50:47;12.30;;;8.37;;
7181;SDS011;3632;42.724;23.298;2023-07-02T07:53:14;9.67;;;8.40;;
7181;SDS011;3632;42.724;23.298;2023-07-02T07:55:42;13.13;;;9.50;;
7181;SDS011;3632;42.724;23.298;2023-07-02T07:58:08;14.90;;;9.77;;
7181;SDS011;3632;42.724;23.298;2023-07-02T08:00:35;14.43;;;8.87;;
7181;SDS011;3632;42.724;23.298;2023-07-02T08:03:02;12.33;;;8.63;;
7181;SDS011;3632;42.724;23.298;2023-07-02T08:05:29;10.97;;;8.50;;
7181;SDS011;3632;42.724;23.298;2023-07-02T08:07:56;13.93;;;8.87;;
7181;SDS011;3632;42.724;23.298;2023-07-02T08:10:23;12.77;;;8.63;;
7181;SDS011;3632;42.724;23.298;2023-07-02T08:12:51;10.43;;;8.50;;
7181;SDS011;3632;42.724;23.298;2023-07-02T08:15:18;11.40;;;8.80;;
7181;SDS011;3632;42.724;23.298;2023-07-02T08:17:45;11.20;;;8.30;;
7181;SDS011;3632;42.724;23.298;2023-07-02T08:20:12;13.53;;;8.50;;
7181;SDS011;3632;42.724;23.298;2023-07-02T08:22:39;11.60;;;8.27;;
7181;SDS011;3632;42.724;23.298;2023-07-02T08:25:06;14.37;;;9.37;;
7181;SDS011;3632;42.724;23.298;2023-07-02T08:27:33;19.80;;;14.60;;
7181;SDS011;3632;42.724;23.298;2023-07-02T08:30:02;9.20;;;7.97;;
7181;SDS011;3632;42.724;23.298;2023-07-02T08:32:29;14.30;;;9.93;;
7181;SDS011;3632;42.724;23.298;2023-07-02T08:34:57;10.13;;;7.60;;
7181;SDS011;3632;42.724;23.298;2023-07-02T08:37:24;10.87;;;8.03;;
7181;SDS011;3632;42.724;23.298;2023-07-02T08:39:51;10.10;;;7.70;;
7181;SDS011;3632;42.724;23.298;2023-07-02T08:42:17;10.63;;;7.37;;
7181;SDS011;3632;42.724;23.298;2023-07-02T08:44:45;11.10;;;7.93;;
7181;SDS011;3632;42.724;23.298;2023-07-02T08:47:14;12.33;;;8.03;;
7181;SDS011;3632;42.724;23.298;2023-07-02T08:49:41;13.90;;;9.10;;
7181;SDS011;3632;42.724;23.298;2023-07-02T08:52:10;14.27;;;9.30;;
7181;SDS011;3632;42.724;23.298;2023-07-02T08:54:36;13.37;;;8.80;;
7181;SDS011;3632;42.724;23.298;2023-07-02T08:57:04;10.50;;;8.50;;
7181;SDS011;3632;42.724;23.298;2023-07-02T08:59:31;10.60;;;7.90;;
7181;SDS011;3632;42.724;23.298;2023-07-02T09:01:58;9.77;;;7.63;;
7181;SDS011;3632;42.724;23.298;2023-07-02T09:04:26;10.90;;;7.93;;
7181;SDS011;3632;42.724;23.298;2023-07-02T09:07:03;12.47;;;7.80;;
7181;SDS011;3632;42.724;23.298;2023-07-02T09:09:30;14.53;;;10.27;;
7181;SDS011;3632;42.724;23.298;2023-07-02T09:11:57;10.43;;;8.03;;
7181;SDS011;3632;42.724;23.298;2023-07-02T09:14:25;10.93;;;8.10;;
7181;SDS011;3632;42.724;23.298;2023-07-02T09:17:04;10.70;;;7.90;;
7181;SDS011;3632;42.724;23.298;2023-07-02T09:19:35;12.43;;;7.77;;
7181;SDS011;3632;42.724;23.298;2023-07-02T09:22:13;8.07;;;7.27;;
7181;SDS011;3632;42.724;23.298;2023-07-02T09:24:41;10.07;;;7.27;;
7181;SDS011;3632;42.724;23.298;2023-07-02T09:27:07;9.77;;;6.90;;
7181;SDS011;3632;42.724;23.298;2023-07-02T09:29:34;9.67;;;7.10;;
7181;SDS011;3632;42.724;23.298;2023-07-02T09:32:04;10.30;;;7.07;;
7181;SDS011;3632;42.724;23.298;2023-07-02T09:34:32;13.10;;;11.10;;
7181;SDS011;3632;42.724;23.298;2023-07-02T09:37:02;12.47;;;8.70;;
7181;SDS011;3632;42.724;23.298;2023-07-02T09:39:31;15.23;;;11.30;;
7181;SDS011;3632;42.724;23.298;2023-07-02T09:41:59;10.17;;;7.23;;
7181;SDS011;3632;42.724;23.298;2023-07-02T09:44:27;9.63;;;7.67;;
7181;SDS011;3632;42.724;23.298;2023-07-02T09:47:00;8.87;;;7.50;;
7181;SDS011;3632;42.724;23.298;2023-07-02T09:49:29;11.00;;;7.87;;
7181;SDS011;3632;42.724;23.298;2023-07-02T09:52:00;9.97;;;8.07;;
7181;SDS011;3632;42.724;23.298;2023-07-02T09:54:27;8.80;;;7.13;;
7181;SDS011;3632;42.724;23.298;2023-07-02T09:56:55;8.70;;;7.03;;
7181;SDS011;3632;42.724;23.298;2023-07-02T09:59:22;10.43;;;7.10;;
7181;SDS011;3632;42.724;23.298;2023-07-02T10:01:49;9.07;;;7.03;;
7181;SDS011;3632;42.724;23.298;2023-07-02T10:04:17;8.50;;;6.70;;
7181;SDS011;3632;42.724;23.298;2023-07-02T10:06:45;8.50;;;6.90;;
7181;SDS011;3632;42.724;23.298;2023-07-02T10:09:14;9.23;;;6.40;;
7181;SDS011;3632;42.724;23.298;2023-07-02T10:11:41;7.20;;;6.37;;
7181;SDS011;3632;42.724;23.298;2023-07-02T10:14:08;8.13;;;6.30;;
7181;SDS011;3632;42.724;23.298;2023-07-02T10:16:47;9.33;;;6.67;;
7181;SDS011;3632;42.724;23.298;2023-07-02T10:19:15;7.37;;;6.67;;
7181;SDS011;3632;42.724;23.298;2023-07-02T10:21:41;12.37;;;9.00;;
7181;SDS011;3632;42.724;23.298;2023-07-02T10:24:11;10.77;;;7.27;;
7181;SDS011;3632;42.724;23.298;2023-07-02T10:26:50;9.63;;;6.63;;
7181;SDS011;3632;42.724;23.298;2023-07-02T10:29:18;7.70;;;5.70;;
7181;SDS011;3632;42.724;23.298;2023-07-02T10:31:48;7.60;;;5.13;;
7181;SDS011;3632;42.724;23.298;2023-07-02T10:34:15;5.77;;;5.17;;
7181;SDS011;3632;42.724;23.298;2023-07-02T10:36:42;6.53;;;5.23;;
7181;SDS011;3632;42.724;23.298;2023-07-02T10:39:09;7.77;;;5.50;;
7181;SDS011;3632;42.724;23.298;2023-07-02T10:41:35;14.27;;;6.70;;
7181;SDS011;3632;42.724;23.298;2023-07-02T10:44:08;8.33;;;5.80;;
7181;SDS011;3632;42.724;23.298;2023-07-02T10:46:42;7.97;;;5.90;;
7181;SDS011;3632;42.724;23.298;2023-07-02T10:49:10;6.30;;;5.70;;
7181;SDS011;3632;42.724;23.298;2023-07-02T10:51:37;7.07;;;5.00;;
7181;SDS011;3632;42.724;23.298;2023-07-02T10:54:04;5.07;;;4.53;;
7181;SDS011;3632;42.724;23.298;2023-07-02T10:56:31;5.10;;;4.60;;
7181;SDS011;3632;42.724;23.298;2023-07-02T10:58:58;6.50;;;5.33;;
7181;SDS011;3632;42.724;23.298;2023-07-02T11:01:27;7.87;;;6.97;;
7181;SDS011;3632;42.724;23.298;2023-07-02T11:03:55;6.20;;;5.33;;
7181;SDS011;3632;42.724;23.298;2023-07-02T11:06:23;6.20;;;5.57;;
7181;SDS011;3632;42.724;23.298;2023-07-02T11:08:51;7.63;;;4.97;;
7181;SDS011;3632;42.724;23.298;2023-07-02T11:11:17;5.63;;;4.33;;
7181;SDS011;3632;42.724;23.298;2023-07-02T11:13:45;4.03;;;3.63;;
7181;SDS011;3632;42.724;23.298;2023-07-02T11:16:19;4.90;;;4.40;;
7181;SDS011;3632;42.724;23.298;2023-07-02T11:18:50;5.07;;;4.27;;
7181;SDS011;3632;42.724;23.298;2023-07-02T11:21:18;6.97;;;5.40;;
7181;SDS011;3632;42.724;23.298;2023-07-02T11:23:45;10.43;;;5.67;;
7181;SDS011;3632;42.724;23.298;2023-07-02T11:26:11;6.27;;;5.67;;
7181;SDS011;3632;42.724;23.298;2023-07-02T11:28:47;8.90;;;5.73;;
7181;SDS011;3632;42.724;23.298;2023-07-02T11:31:23;8.70;;;5.40;;
7181;SDS011;3632;42.724;23.298;2023-07-02T11:33:53;7.87;;;5.47;;
7181;SDS011;3632;42.724;23.298;2023-07-02T11:36:21;7.30;;;6.20;;
7181;SDS011;3632;42.724;23.298;2023-07-02T11:38:50;8.27;;;6.00;;
7181;SDS011;3632;42.724;23.298;2023-07-02T11:41:18;6.73;;;5.93;;
7181;SDS011;3632;42.724;23.298;2023-07-02T11:43:46;7.57;;;5.70;;
7181;SDS011;3632;42.724;23.298;2023-07-02T11:46:13;7.73;;;5.67;;
7181;SDS011;3632;42.724;23.298;2023-07-02T11:48:40;7.60;;;5.53;;
7181;SDS011;3632;42.724;23.298;2023-07-02T11:51:08;6.97;;;5.73;;
7181;SDS011;3632;42.724;23.298;2023-07-02T11:53:35;7.50;;;5.60;;
7181;SDS011;3632;42.724;23.298;2023-07-02T11:56:01;7.30;;;5.20;;
7181;SDS011;3632;42.724;23.298;2023-07-02T11:58:28;11.10;;;5.07;;
7181;SDS011;3632;42.724;23.298;2023-07-02T12:00:55;5.90;;;4.80;;
7181;SDS011;3632;42.724;23.298;2023-07-02T12:03:22;9.10;;;5.23;;
7181;SDS011;3632;42.724;23.298;2023-07-02T12:05:48;8.43;;;5.20;;
7181;SDS011;3632;42.724;23.298;2023-07-02T12:08:17;8.00;;;5.40;;
7181;SDS011;3632;42.724;23.298;2023-07-02T12:10:44;6.40;;;5.03;;
7181;SDS011;3632;42.724;23.298;2023-07-02T12:13:11;9.13;;;6.50;;
7181;SDS011;3632;42.724;23.298;2023-07-02T12:15:37;8.47;;;6.10;;
7181;SDS011;3632;42.724;23.298;2023-07-02T12:18:04;7.77;;;6.97;;
7181;SDS011;3632;42.724;23.298;2023-07-02T12:20:31;8.57;;;5.10;;
7181;SDS011;3632;42.724;23.298;2023-07-02T12:22:58;6.07;;;5.07;;
7181;SDS011;3632;42.724;23.298;2023-07-02T12:25:26;5.83;;;5.23;;
7181;SDS011;3632;42.724;23.298;2023-07-02T12:27:53;6.97;;;5.47;;
7181;SDS011;3632;42.724;23.298;2023-07-02T12:30:20;5.27;;;4.73;;
7181;SDS011;3632;42.724;23.298;2023-07-02T12:32:47;7.87;;;5.43;;
7181;SDS011;3632;42.724;23.298;2023-07-02T12:35:14;9.67;;;5.97;;
7181;SDS011;3632;42.724;23.298;2023-07-02T12:37:44;6.50;;;5.83;;
7181;SDS011;3632;42.724;23.298;2023-07-02T12:40:11;7.40;;;6.63;;
7181;SDS011;3632;42.724;23.298;2023-07-02T12:42:40;8.03;;;6.00;;
7181;SDS011;3632;42.724;23.298;2023-07-02T12:45:07;6.70;;;6.00;;
7181;SDS011;3632;42.724;23.298;2023-07-02T12:47:35;8.87;;;6.40;;
7181;SDS011;3632;42.724;23.298;2023-07-02T12:50:02;7.23;;;5.97;;
7181;SDS011;3632;42.724;23.298;2023-07-02T12:52:29;7.00;;;6.00;;
7181;SDS011;3632;42.724;23.298;2023-07-02T12:54:56;6.53;;;5.73;;
7181;SDS011;3632;42.724;23.298;2023-07-02T12:57:23;6.90;;;6.20;;
7181;SDS011;3632;42.724;23.298;2023-07-02T12:59:52;5.93;;;5.40;;
7181;SDS011;3632;42.724;23.298;2023-07-02T13:02:20;9.85;;;8.88;;
7181;SDS011;3632;42.724;23.298;2023-07-02T13:04:47;6.90;;;6.03;;
7181;SDS011;3632;42.724;23.298;2023-07-02T13:07:14;5.80;;;5.30;;
7181;SDS011;3632;42.724;23.298;2023-07-02T13:09:40;7.20;;;6.13;;
7181;SDS011;3632;42.724;23.298;2023-07-02T13:12:08;7.23;;;6.53;;
7181;SDS011;3632;42.724;23.298;2023-07-02T13:14:35;6.20;;;5.60;;
7181;SDS011;3632;42.724;23.298;2023-07-02T13:17:03;6.00;;;5.40;;
7181;SDS011;3632;42.724;23.298;2023-07-02T13:19:31;6.30;;;5.70;;
7181;SDS011;3632;42.724;23.298;2023-07-02T13:21:58;7.40;;;6.07;;
7181;SDS011;3632;42.724;23.298;2023-07-02T13:24:27;8.70;;;6.23;;
7181;SDS011;3632;42.724;23.298;2023-07-02T13:26:58;6.87;;;5.83;;
7181;SDS011;3632;42.724;23.298;2023-07-02T13:29:25;8.30;;;6.10;;
7181;SDS011;3632;42.724;23.298;2023-07-02T13:31:52;6.57;;;5.73;;
7181;SDS011;3632;42.724;23.298;2023-07-02T13:34:20;6.60;;;5.40;;
7181;SDS011;3632;42.724;23.298;2023-07-02T13:36:47;6.60;;;5.83;;
7181;SDS011;3632;42.724;23.298;2023-07-02T13:39:14;6.53;;;5.90;;
7181;SDS011;3632;42.724;23.298;2023-07-02T13:41:40;8.43;;;6.87;;
7181;SDS011;3632;42.724;23.298;2023-07-02T13:44:07;6.10;;;5.50;;
7181;SDS011;3632;42.724;23.298;2023-07-02T13:46:34;6.73;;;5.33;;
7181;SDS011;3632;42.724;23.298;2023-07-02T13:49:01;6.47;;;5.40;;
7181;SDS011;3632;42.724;23.298;2023-07-02T13:51:29;8.00;;;5.70;;
7181;SDS011;3632;42.724;23.298;2023-07-02T13:53:56;7.37;;;5.93;;
7181;SDS011;3632;42.724;23.298;2023-07-02T13:56:23;6.90;;;5.57;;
7181;SDS011;3632;42.724;23.298;2023-07-02T13:59:01;6.60;;;5.60;;
7181;SDS011;3632;42.724;23.298;2023-07-02T14:01:29;6.20;;;5.37;;
7181;SDS011;3632;42.724;23.298;2023-07-02T14:03:56;6.73;;;5.80;;
7181;SDS011;3632;42.724;23.298;2023-07-02T14:06:23;7.00;;;5.53;;
7181;SDS011;3632;42.724;23.298;2023-07-02T14:08:50;8.00;;;6.47;;
7181;SDS011;3632;42.724;23.298;2023-07-02T14:11:17;6.63;;;5.90;;
7181;SDS011;3632;42.724;23.298;2023-07-02T14:13:45;7.50;;;6.27;;
7181;SDS011;3632;42.724;23.298;2023-07-02T14:16:14;7.07;;;5.63;;
7181;SDS011;3632;42.724;23.298;2023-07-02T14:18:41;8.73;;;6.20;;
7181;SDS011;3632;42.724;23.298;2023-07-02T14:21:08;7.93;;;6.20;;
7181;SDS011;3632;42.724;23.298;2023-07-02T14:23:35;8.00;;;5.90;;
7181;SDS011;3632;42.724;23.298;2023-07-02T14:26:02;8.83;;;6.13;;
7181;SDS011;3632;42.724;23.298;2023-07-02T14:28:29;8.17;;;5.97;;
7181;SDS011;3632;42.724;23.298;2023-07-02T14:30:56;7.73;;;6.50;;
7181;SDS011;3632;42.724;23.298;2023-07-02T14:33:25;8.43;;;7.53;;
7181;SDS011;3632;42.724;23.298;2023-07-02T14:35:53;10.20;;;9.13;;
7181;SDS011;3632;42.724;23.298;2023-07-02T14:38:20;7.97;;;6.80;;
7181;SDS011;3632;42.724;23.298;2023-07-02T14:40:47;9.07;;;6.73;;
7181;SDS011;3632;42.724;23.298;2023-07-02T14:43:14;7.07;;;6.37;;
7181;SDS011;3632;42.724;23.298;2023-07-02T14:45:42;8.07;;;6.67;;
7181;SDS011;3632;42.724;23.298;2023-07-02T14:48:12;8.20;;;6.17;;
7181;SDS011;3632;42.724;23.298;2023-07-02T14:50:43;7.43;;;6.40;;
7181;SDS011;3632;42.724;23.298;2023-07-02T14:53:11;9.03;;;6.90;;
7181;SDS011;3632;42.724;23.298;2023-07-02T14:55:37;7.20;;;6.13;;
7181;SDS011;3632;42.724;23.298;2023-07-02T14:58:06;6.73;;;6.03;;